sensor_id;sensor_type;location;lat;lon;timestamp;temperature;humidity
15426;DHT22;7812;50.072;7.036;2023-06-10T00:01:13;14.80;99.90
15426;DHT22;7812;50.072;7.036;2023-06-10T00:03:38;14.80;99.90
15426;DHT22;7812;50.072;7.036;2023-06-10T00:06:06;14.70;99.90
15426;DHT22;7812;50.072;7.036;2023-06-10T00:08:32;14.70;99.90
15426;DHT22;7812;50.072;7.036;2023-06-10T00:10:58;14.70;99.90
15426;DHT22;7812;50.072;7.036;2023-06-10T00:13:24;14.70;99.90
15426;DHT22;7812;50.072;7.036;2023-06-10T00:15:50;14.70;99.90
15426;DHT22;7812;50.072;7.036;2023-06-10T00:18:16;14.70;99.90
15426;DHT22;7812;50.072;7.036;2023-06-10T00:20:43;14.70;99.90
15426;DHT22;7812;50.072;7.036;2023-06-10T00:23:09;14.70;99.90
15426;DHT22;7812;50.072;7.036;2023-06-10T00:25:35;14.70;99.90
15426;DHT22;7812;50.072;7.036;2023-06-10T00:28:00;14.70;99.90
15426;DHT22;7812;50.072;7.036;2023-06-10T00:30:26;14.70;99.90
15426;DHT22;7812;50.072;7.036;2023-06-10T00:32:52;14.70;99.90
15426;DHT22;7812;50.072;7.036;2023-06-10T00:35:17;14.70;99.90
15426;DHT22;7812;50.072;7.036;2023-06-10T00:37:43;14.60;99.90
15426;DHT22;7812;50.072;7.036;2023-06-10T00:40:09;14.60;99.90
15426;DHT22;7812;50.072;7.036;2023-06-10T00:42:35;14.50;99.90
15426;DHT22;7812;50.072;7.036;2023-06-10T00:45:01;14.50;99.90
15426;DHT22;7812;50.072;7.036;2023-06-10T00:47:27;14.50;99.90
15426;DHT22;7812;50.072;7.036;2023-06-10T00:49:54;14.40;99.90
15426;DHT22;7812;50.072;7.036;2023-06-10T00:52:21;14.30;99.90
15426;DHT22;7812;50.072;7.036;2023-06-10T00:54:47;14.30;99.90
15426;DHT22;7812;50.072;7.036;2023-06-10T00:57:13;14.30;99.90
15426;DHT22;7812;50.072;7.036;2023-06-10T00:59:47;14.20;99.90
15426;DHT22;7812;50.072;7.036;2023-06-10T01:02:13;14.20;99.90
15426;DHT22;7812;50.072;7.036;2023-06-10T01:04:39;14.20;99.90
15426;DHT22;7812;50.072;7.036;2023-06-10T01:12:40;14.10;99.90
15426;DHT22;7812;50.072;7.036;2023-06-10T01:15:08;14.10;99.90
15426;DHT22;7812;50.072;7.036;2023-06-10T01:17:52;14.10;99.90
15426;DHT22;7812;50.072;7.036;2023-06-10T01:20:19;14.10;99.90
15426;DHT22;7812;50.072;7.036;2023-06-10T01:22:44;14.00;99.90
15426;DHT22;7812;50.072;7.036;2023-06-10T01:25:11;14.00;99.90
15426;DHT22;7812;50.072;7.036;2023-06-10T01:27:38;14.10;99.90
15426;DHT22;7812;50.072;7.036;2023-06-10T01:30:14;14.10;99.90
15426;DHT22;7812;50.072;7.036;2023-06-10T01:32:50;14.00;99.90
15426;DHT22;7812;50.072;7.036;2023-06-10T01:35:17;14.00;99.90
15426;DHT22;7812;50.072;7.036;2023-06-10T01:37:46;14.00;99.90
15426;DHT22;7812;50.072;7.036;2023-06-10T01:40:12;14.00;99.90
15426;DHT22;7812;50.072;7.036;2023-06-10T01:42:38;14.00;99.90
15426;DHT22;7812;50.072;7.036;2023-06-10T01:45:05;14.00;99.90
15426;DHT22;7812;50.072;7.036;2023-06-10T01:47:31;13.90;99.90
15426;DHT22;7812;50.072;7.036;2023-06-10T01:49:56;13.90;99.90
15426;DHT22;7812;50.072;7.036;2023-06-10T01:52:22;13.80;99.90
15426;DHT22;7812;50.072;7.036;2023-06-10T01:54:48;13.80;99.90
15426;DHT22;7812;50.072;7.036;2023-06-10T01:57:14;13.80;99.90
15426;DHT22;7812;50.072;7.036;2023-06-10T01:59:39;13.80;99.90
15426;DHT22;7812;50.072;7.036;2023-06-10T02:02:05;13.70;99.90
15426;DHT22;7812;50.072;7.036;2023-06-10T02:04:31;13.80;99.90
15426;DHT22;7812;50.072;7.036;2023-06-10T02:06:57;13.70;99.90
15426;DHT22;7812;50.072;7.036;2023-06-10T02:09:22;13.70;99.90
15426;DHT22;7812;50.072;7.036;2023-06-10T02:11:48;13.60;99.90
15426;DHT22;7812;50.072;7.036;2023-06-10T02:14:14;13.60;99.90
15426;DHT22;7812;50.072;7.036;2023-06-10T02:16:41;13.60;99.90
15426;DHT22;7812;50.072;7.036;2023-06-10T02:19:07;13.60;99.90
15426;DHT22;7812;50.072;7.036;2023-06-10T02:21:33;13.60;99.90
15426;DHT22;7812;50.072;7.036;2023-06-10T02:24:00;13.50;99.90
15426;DHT22;7812;50.072;7.036;2023-06-10T02:26:26;13.40;99.90
15426;DHT22;7812;50.072;7.036;2023-06-10T02:28:52;13.40;99.90
15426;DHT22;7812;50.072;7.036;2023-06-10T02:31:17;13.50;99.90
15426;DHT22;7812;50.072;7.036;2023-06-10T02:33:44;13.40;99.90
15426;DHT22;7812;50.072;7.036;2023-06-10T02:36:10;13.50;99.90
15426;DHT22;7812;50.072;7.036;2023-06-10T02:38:39;13.40;99.90
15426;DHT22;7812;50.072;7.036;2023-06-10T02:41:06;13.40;99.90
15426;DHT22;7812;50.072;7.036;2023-06-10T02:43:31;13.40;99.90
15426;DHT22;7812;50.072;7.036;2023-06-10T02:45:58;13.40;99.90
15426;DHT22;7812;50.072;7.036;2023-06-10T02:48:24;13.30;99.90
15426;DHT22;7812;50.072;7.036;2023-06-10T02:50:50;13.20;99.90
15426;DHT22;7812;50.072;7.036;2023-06-10T02:53:16;13.20;99.90
15426;DHT22;7812;50.072;7.036;2023-06-10T02:55:42;13.10;99.90
15426;DHT22;7812;50.072;7.036;2023-06-10T02:58:08;13.10;99.90
15426;DHT22;7812;50.072;7.036;2023-06-10T03:00:34;13.10;99.90
15426;DHT22;7812;50.072;7.036;2023-06-10T03:02:59;13.10;99.90
15426;DHT22;7812;50.072;7.036;2023-06-10T03:05:29;13.00;99.90
15426;DHT22;7812;50.072;7.036;2023-06-10T03:07:56;13.00;99.90
15426;DHT22;7812;50.072;7.036;2023-06-10T03:10:21;13.10;99.90
15426;DHT22;7812;50.072;7.036;2023-06-10T03:12:47;13.10;99.90
15426;DHT22;7812;50.072;7.036;2023-06-10T03:15:13;13.10;99.90
15426;DHT22;7812;50.072;7.036;2023-06-10T03:17:40;13.00;99.90
15426;DHT22;7812;50.072;7.036;2023-06-10T03:20:07;13.00;99.90
15426;DHT22;7812;50.072;7.036;2023-06-10T03:22:35;12.90;99.90
15426;DHT22;7812;50.072;7.036;2023-06-10T03:25:03;12.90;99.90
15426;DHT22;7812;50.072;7.036;2023-06-10T03:27:29;13.00;99.90
15426;DHT22;7812;50.072;7.036;2023-06-10T03:29:55;13.00;99.90
15426;DHT22;7812;50.072;7.036;2023-06-10T03:32:21;12.90;99.90
15426;DHT22;7812;50.072;7.036;2023-06-10T03:34:47;12.90;99.90
15426;DHT22;7812;50.072;7.036;2023-06-10T03:37:13;12.90;99.90
15426;DHT22;7812;50.072;7.036;2023-06-10T03:39:39;12.90;99.90
15426;DHT22;7812;50.072;7.036;2023-06-10T03:42:05;13.00;99.90
15426;DHT22;7812;50.072;7.036;2023-06-10T03:44:31;13.00;99.90
15426;DHT22;7812;50.072;7.036;2023-06-10T03:46:56;13.00;99.90
15426;DHT22;7812;50.072;7.036;2023-06-10T03:49:23;13.00;99.90
15426;DHT22;7812;50.072;7.036;2023-06-10T03:51:55;13.00;99.90
15426;DHT22;7812;50.072;7.036;2023-06-10T03:54:21;13.00;99.90
15426;DHT22;7812;50.072;7.036;2023-06-10T03:56:47;13.10;99.90
15426;DHT22;7812;50.072;7.036;2023-06-10T03:59:13;13.00;99.90
15426;DHT22;7812;50.072;7.036;2023-06-10T04:01:39;13.00;99.90
15426;DHT22;7812;50.072;7.036;2023-06-10T04:04:06;13.10;99.90
15426;DHT22;7812;50.072;7.036;2023-06-10T04:06:32;13.10;99.90
15426;DHT22;7812;50.072;7.036;2023-06-10T04:08:58;13.10;99.90
15426;DHT22;7812;50.072;7.036;2023-06-10T04:11:24;13.10;99.90
15426;DHT22;7812;50.072;7.036;2023-06-10T04:13:50;13.10;99.90
15426;DHT22;7812;50.072;7.036;2023-06-10T04:16:16;13.10;99.90
15426;DHT22;7812;50.072;7.036;2023-06-10T04:18:41;13.10;99.90
15426;DHT22;7812;50.072;7.036;2023-06-10T04:21:07;13.10;99.90
15426;DHT22;7812;50.072;7.036;2023-06-10T04:23:35;13.10;99.90
15426;DHT22;7812;50.072;7.036;2023-06-10T04:26:02;13.00;99.90
15426;DHT22;7812;50.072;7.036;2023-06-10T04:28:27;13.00;99.90
15426;DHT22;7812;50.072;7.036;2023-06-10T04:30:53;13.10;99.90
15426;DHT22;7812;50.072;7.036;2023-06-10T04:33:19;13.10;99.90
15426;DHT22;7812;50.072;7.036;2023-06-10T04:35:48;13.30;99.90
15426;DHT22;7812;50.072;7.036;2023-06-10T04:38:14;13.40;99.90
15426;DHT22;7812;50.072;7.036;2023-06-10T04:40:40;13.30;99.90
15426;DHT22;7812;50.072;7.036;2023-06-10T04:43:06;13.30;99.90
15426;DHT22;7812;50.072;7.036;2023-06-10T04:45:33;13.40;99.90
15426;DHT22;7812;50.072;7.036;2023-06-10T04:47:58;13.40;99.90
15426;DHT22;7812;50.072;7.036;2023-06-10T04:50:24;13.50;99.90
15426;DHT22;7812;50.072;7.036;2023-06-10T04:52:50;13.70;99.90
15426;DHT22;7812;50.072;7.036;2023-06-10T04:55:16;13.80;99.90
15426;DHT22;7812;50.072;7.036;2023-06-10T04:57:41;13.90;99.90
15426;DHT22;7812;50.072;7.036;2023-06-10T05:00:08;14.00;99.90
15426;DHT22;7812;50.072;7.036;2023-06-10T05:02:34;14.20;99.90
15426;DHT22;7812;50.072;7.036;2023-06-10T05:04:59;14.30;99.90
15426;DHT22;7812;50.072;7.036;2023-06-10T05:07:25;14.50;99.90
15426;DHT22;7812;50.072;7.036;2023-06-10T05:09:51;14.60;99.90
15426;DHT22;7812;50.072;7.036;2023-06-10T05:12:18;14.60;99.90
15426;DHT22;7812;50.072;7.036;2023-06-10T05:14:44;14.80;99.90
15426;DHT22;7812;50.072;7.036;2023-06-10T05:17:10;15.00;99.90
15426;DHT22;7812;50.072;7.036;2023-06-10T05:19:36;15.10;99.90
15426;DHT22;7812;50.072;7.036;2023-06-10T05:22:03;15.10;99.90
15426;DHT22;7812;50.072;7.036;2023-06-10T05:24:28;15.40;99.90
15426;DHT22;7812;50.072;7.036;2023-06-10T05:26:54;15.50;99.90
15426;DHT22;7812;50.072;7.036;2023-06-10T05:29:20;15.80;99.90
15426;DHT22;7812;50.072;7.036;2023-06-10T05:31:45;16.20;99.90
15426;DHT22;7812;50.072;7.036;2023-06-10T05:34:11;16.50;99.90
15426;DHT22;7812;50.072;7.036;2023-06-10T05:36:37;16.70;99.90
15426;DHT22;7812;50.072;7.036;2023-06-10T05:39:03;16.90;99.90
15426;DHT22;7812;50.072;7.036;2023-06-10T05:41:29;17.10;99.90
15426;DHT22;7812;50.072;7.036;2023-06-10T05:43:54;17.30;99.90
15426;DHT22;7812;50.072;7.036;2023-06-10T05:46:20;17.60;99.90
15426;DHT22;7812;50.072;7.036;2023-06-10T05:48:46;17.70;99.90
15426;DHT22;7812;50.072;7.036;2023-06-10T05:51:12;17.90;99.90
15426;DHT22;7812;50.072;7.036;2023-06-10T05:53:37;18.20;99.90
15426;DHT22;7812;50.072;7.036;2023-06-10T05:56:04;18.60;99.90
15426;DHT22;7812;50.072;7.036;2023-06-10T05:58:29;18.90;99.90
15426;DHT22;7812;50.072;7.036;2023-06-10T06:00:55;19.20;99.90
15426;DHT22;7812;50.072;7.036;2023-06-10T06:03:21;19.60;99.90
15426;DHT22;7812;50.072;7.036;2023-06-10T06:05:47;19.80;99.90
15426;DHT22;7812;50.072;7.036;2023-06-10T06:08:12;20.30;99.90
15426;DHT22;7812;50.072;7.036;2023-06-10T06:10:44;20.70;99.90
15426;DHT22;7812;50.072;7.036;2023-06-10T06:13:10;21.20;99.90
15426;DHT22;7812;50.072;7.036;2023-06-10T06:15:36;21.40;99.90
15426;DHT22;7812;50.072;7.036;2023-06-10T06:18:01;21.70;99.90
15426;DHT22;7812;50.072;7.036;2023-06-10T06:20:27;22.10;99.90
15426;DHT22;7812;50.072;7.036;2023-06-10T06:22:53;22.20;99.90
15426;DHT22;7812;50.072;7.036;2023-06-10T06:25:19;22.50;99.90
15426;DHT22;7812;50.072;7.036;2023-06-10T06:27:45;22.50;99.90
15426;DHT22;7812;50.072;7.036;2023-06-10T06:30:11;23.20;99.90
15426;DHT22;7812;50.072;7.036;2023-06-10T06:32:37;23.50;99.90
15426;DHT22;7812;50.072;7.036;2023-06-10T06:35:03;23.90;99.90
15426;DHT22;7812;50.072;7.036;2023-06-10T06:37:31;24.40;99.90
15426;DHT22;7812;50.072;7.036;2023-06-10T06:39:58;24.90;99.90
15426;DHT22;7812;50.072;7.036;2023-06-10T06:42:23;25.20;99.90
15426;DHT22;7812;50.072;7.036;2023-06-10T06:44:49;25.50;99.90
15426;DHT22;7812;50.072;7.036;2023-06-10T06:47:15;26.10;99.90
15426;DHT22;7812;50.072;7.036;2023-06-10T06:49:43;25.30;99.90
15426;DHT22;7812;50.072;7.036;2023-06-10T06:52:08;25.70;99.90
15426;DHT22;7812;50.072;7.036;2023-06-10T06:54:34;25.10;99.90
15426;DHT22;7812;50.072;7.036;2023-06-10T06:57:00;25.40;99.90
15426;DHT22;7812;50.072;7.036;2023-06-10T06:59:26;26.10;99.90
15426;DHT22;7812;50.072;7.036;2023-06-10T07:01:52;26.80;99.90
15426;DHT22;7812;50.072;7.036;2023-06-10T07:04:19;28.30;99.90
15426;DHT22;7812;50.072;7.036;2023-06-10T07:06:50;29.30;99.90
15426;DHT22;7812;50.072;7.036;2023-06-10T07:09:17;29.50;99.90
15426;DHT22;7812;50.072;7.036;2023-06-10T07:11:42;28.20;99.90
15426;DHT22;7812;50.072;7.036;2023-06-10T07:14:08;27.60;99.90
15426;DHT22;7812;50.072;7.036;2023-06-10T07:16:34;28.90;99.90
15426;DHT22;7812;50.072;7.036;2023-06-10T07:19:00;29.50;99.90
15426;DHT22;7812;50.072;7.036;2023-06-10T07:21:25;29.60;99.90
15426;DHT22;7812;50.072;7.036;2023-06-10T07:23:51;29.90;99.90
15426;DHT22;7812;50.072;7.036;2023-06-10T07:26:21;30.40;99.90
15426;DHT22;7812;50.072;7.036;2023-06-10T07:28:47;30.20;99.90
15426;DHT22;7812;50.072;7.036;2023-06-10T07:31:12;30.10;99.90
15426;DHT22;7812;50.072;7.036;2023-06-10T07:33:38;29.90;99.90
15426;DHT22;7812;50.072;7.036;2023-06-10T07:36:07;29.40;99.90
15426;DHT22;7812;50.072;7.036;2023-06-10T07:38:33;29.60;99.90
15426;DHT22;7812;50.072;7.036;2023-06-10T07:40:59;29.20;99.90
15426;DHT22;7812;50.072;7.036;2023-06-10T07:43:25;28.90;99.90
15426;DHT22;7812;50.072;7.036;2023-06-10T07:45:51;29.40;99.90
15426;DHT22;7812;50.072;7.036;2023-06-10T07:48:16;29.30;99.90
15426;DHT22;7812;50.072;7.036;2023-06-10T07:50:42;28.60;99.90
15426;DHT22;7812;50.072;7.036;2023-06-10T07:53:08;29.50;99.90
15426;DHT22;7812;50.072;7.036;2023-06-10T07:55:35;29.00;99.90
15426;DHT22;7812;50.072;7.036;2023-06-10T07:58:00;29.40;99.90
15426;DHT22;7812;50.072;7.036;2023-06-10T08:00:27;30.20;99.90
15426;DHT22;7812;50.072;7.036;2023-06-10T08:02:53;29.50;99.90
15426;DHT22;7812;50.072;7.036;2023-06-10T08:05:19;29.40;99.90
15426;DHT22;7812;50.072;7.036;2023-06-10T08:07:45;29.90;99.90
15426;DHT22;7812;50.072;7.036;2023-06-10T08:10:11;29.90;99.90
15426;DHT22;7812;50.072;7.036;2023-06-10T08:12:37;30.00;99.90
15426;DHT22;7812;50.072;7.036;2023-06-10T08:15:03;30.00;99.90
15426;DHT22;7812;50.072;7.036;2023-06-10T08:17:31;30.50;99.90
15426;DHT22;7812;50.072;7.036;2023-06-10T08:19:57;29.80;99.90
15426;DHT22;7812;50.072;7.036;2023-06-10T08:22:23;29.90;99.90
15426;DHT22;7812;50.072;7.036;2023-06-10T08:24:48;31.00;99.90
15426;DHT22;7812;50.072;7.036;2023-06-10T08:27:14;31.60;99.90
15426;DHT22;7812;50.072;7.036;2023-06-10T08:29:40;31.80;99.90
15426;DHT22;7812;50.072;7.036;2023-06-10T08:32:06;32.00;99.90
15426;DHT22;7812;50.072;7.036;2023-06-10T08:34:35;32.40;99.90
15426;DHT22;7812;50.072;7.036;2023-06-10T08:37:01;33.00;99.90
15426;DHT22;7812;50.072;7.036;2023-06-10T08:39:27;33.20;99.90
15426;DHT22;7812;50.072;7.036;2023-06-10T08:44:31;33.60;99.90
15426;DHT22;7812;50.072;7.036;2023-06-10T08:47:07;33.60;99.90
15426;DHT22;7812;50.072;7.036;2023-06-10T08:49:43;33.30;99.90
15426;DHT22;7812;50.072;7.036;2023-06-10T08:52:15;32.70;99.90
15426;DHT22;7812;50.072;7.036;2023-06-10T08:54:46;32.90;99.90
15426;DHT22;7812;50.072;7.036;2023-06-10T08:57:15;33.30;99.90
15426;DHT22;7812;50.072;7.036;2023-06-10T08:59:42;34.40;99.90
15426;DHT22;7812;50.072;7.036;2023-06-10T09:02:08;34.20;98.70
15426;DHT22;7812;50.072;7.036;2023-06-10T09:04:35;33.60;99.70
15426;DHT22;7812;50.072;7.036;2023-06-10T09:07:02;34.20;99.20
15426;DHT22;7812;50.072;7.036;2023-06-10T09:09:29;34.50;98.50
15426;DHT22;7812;50.072;7.036;2023-06-10T09:11:57;34.90;97.80
15426;DHT22;7812;50.072;7.036;2023-06-10T09:14:23;35.30;96.90
15426;DHT22;7812;50.072;7.036;2023-06-10T09:16:49;34.40;97.60
15426;DHT22;7812;50.072;7.036;2023-06-10T09:19:16;35.10;97.10
15426;DHT22;7812;50.072;7.036;2023-06-10T09:21:42;35.50;95.70
15426;DHT22;7812;50.072;7.036;2023-06-10T09:24:08;35.60;95.70
15426;DHT22;7812;50.072;7.036;2023-06-10T09:26:34;35.80;94.90
15426;DHT22;7812;50.072;7.036;2023-06-10T09:29:04;36.20;94.20
15426;DHT22;7812;50.072;7.036;2023-06-10T09:31:38;34.70;93.30
15426;DHT22;7812;50.072;7.036;2023-06-10T09:34:06;33.70;94.70
15426;DHT22;7812;50.072;7.036;2023-06-10T09:36:33;33.80;93.80
15426;DHT22;7812;50.072;7.036;2023-06-10T09:38:59;33.60;93.60
15426;DHT22;7812;50.072;7.036;2023-06-10T09:41:40;34.30;94.30
15426;DHT22;7812;50.072;7.036;2023-06-10T09:44:14;35.60;93.50
15426;DHT22;7812;50.072;7.036;2023-06-10T09:46:40;35.80;92.50
15426;DHT22;7812;50.072;7.036;2023-06-10T09:49:06;35.10;93.20
15426;DHT22;7812;50.072;7.036;2023-06-10T09:51:32;34.40;91.90
15426;DHT22;7812;50.072;7.036;2023-06-10T09:53:59;34.10;92.60
15426;DHT22;7812;50.072;7.036;2023-06-10T09:56:35;34.10;92.40
15426;DHT22;7812;50.072;7.036;2023-06-10T09:59:06;35.00;91.90
15426;DHT22;7812;50.072;7.036;2023-06-10T10:01:32;35.60;91.60
15426;DHT22;7812;50.072;7.036;2023-06-10T10:03:59;35.00;91.80
15426;DHT22;7812;50.072;7.036;2023-06-10T10:06:25;34.40;91.70
15426;DHT22;7812;50.072;7.036;2023-06-10T10:08:51;36.20;91.50
15426;DHT22;7812;50.072;7.036;2023-06-10T10:11:19;37.10;90.40
15426;DHT22;7812;50.072;7.036;2023-06-10T10:13:48;37.30;88.20
15426;DHT22;7812;50.072;7.036;2023-06-10T10:16:19;37.60;88.00
15426;DHT22;7812;50.072;7.036;2023-06-10T10:18:54;35.80;88.20
15426;DHT22;7812;50.072;7.036;2023-06-10T10:21:25;35.90;86.20
15426;DHT22;7812;50.072;7.036;2023-06-10T10:26:31;35.80;84.10
15426;DHT22;7812;50.072;7.036;2023-06-10T10:29:30;35.10;85.00
15426;DHT22;7812;50.072;7.036;2023-06-10T10:31:59;36.10;82.40
15426;DHT22;7812;50.072;7.036;2023-06-10T10:35:25;34.50;82.60
15426;DHT22;7812;50.072;7.036;2023-06-10T10:37:44;34.80;82.80
15426;DHT22;7812;50.072;7.036;2023-06-10T10:40:10;35.70;83.70
15426;DHT22;7812;50.072;7.036;2023-06-10T10:42:38;35.70;81.10
15426;DHT22;7812;50.072;7.036;2023-06-10T10:45:05;36.00;80.30
15426;DHT22;7812;50.072;7.036;2023-06-10T10:47:33;34.30;78.50
15426;DHT22;7812;50.072;7.036;2023-06-10T10:49:59;35.30;79.20
15426;DHT22;7812;50.072;7.036;2023-06-10T10:52:26;34.60;76.30
15426;DHT22;7812;50.072;7.036;2023-06-10T10:54:53;34.40;77.10
15426;DHT22;7812;50.072;7.036;2023-06-10T10:57:21;35.00;78.40
15426;DHT22;7812;50.072;7.036;2023-06-10T10:59:57;34.90;75.20
15426;DHT22;7812;50.072;7.036;2023-06-10T11:02:41;34.10;76.50
15426;DHT22;7812;50.072;7.036;2023-06-10T11:08:04;33.40;73.70
15426;DHT22;7812;50.072;7.036;2023-06-10T11:10:37;33.60;73.60
15426;DHT22;7812;50.072;7.036;2023-06-10T11:13:13;33.60;73.70
15426;DHT22;7812;50.072;7.036;2023-06-10T11:15:50;33.60;72.90
15426;DHT22;7812;50.072;7.036;2023-06-10T11:21:04;32.90;74.10
15426;DHT22;7812;50.072;7.036;2023-06-10T11:29:01;32.80;75.50
15426;DHT22;7812;50.072;7.036;2023-06-10T11:31:35;33.40;76.20
15426;DHT22;7812;50.072;7.036;2023-06-10T11:34:04;33.40;76.30
15426;DHT22;7812;50.072;7.036;2023-06-10T11:36:32;33.80;75.50
15426;DHT22;7812;50.072;7.036;2023-06-10T11:39:00;31.30;77.80
15426;DHT22;7812;50.072;7.036;2023-06-10T11:41:27;30.70;79.10
15426;DHT22;7812;50.072;7.036;2023-06-10T11:44:02;31.00;80.60
15426;DHT22;7812;50.072;7.036;2023-06-10T11:46:28;32.30;79.70
15426;DHT22;7812;50.072;7.036;2023-06-10T11:48:55;33.70;78.50
15426;DHT22;7812;50.072;7.036;2023-06-10T11:51:24;35.80;78.10
15426;DHT22;7812;50.072;7.036;2023-06-10T11:53:51;34.70;74.50
15426;DHT22;7812;50.072;7.036;2023-06-10T11:56:21;33.90;76.40
15426;DHT22;7812;50.072;7.036;2023-06-10T11:58:53;35.50;77.10
15426;DHT22;7812;50.072;7.036;2023-06-10T12:01:23;36.60;75.30
15426;DHT22;7812;50.072;7.036;2023-06-10T12:04:05;35.30;74.30
15426;DHT22;7812;50.072;7.036;2023-06-10T12:06:41;33.00;76.00
15426;DHT22;7812;50.072;7.036;2023-06-10T12:09:26;31.20;77.80
15426;DHT22;7812;50.072;7.036;2023-06-10T12:11:58;31.20;79.10
15426;DHT22;7812;50.072;7.036;2023-06-10T12:14:55;32.80;78.10
15426;DHT22;7812;50.072;7.036;2023-06-10T12:19:57;31.80;78.10
15426;DHT22;7812;50.072;7.036;2023-06-10T12:22:23;30.30;80.10
15426;DHT22;7812;50.072;7.036;2023-06-10T12:25:03;29.70;81.10
15426;DHT22;7812;50.072;7.036;2023-06-10T12:27:30;29.50;82.10
15426;DHT22;7812;50.072;7.036;2023-06-10T12:29:58;30.80;83.00
15426;DHT22;7812;50.072;7.036;2023-06-10T12:35:09;33.20;77.30
15426;DHT22;7812;50.072;7.036;2023-06-10T12:37:35;33.30;76.80
15426;DHT22;7812;50.072;7.036;2023-06-10T12:40:03;32.70;76.20
15426;DHT22;7812;50.072;7.036;2023-06-10T12:42:30;32.50;75.00
15426;DHT22;7812;50.072;7.036;2023-06-10T12:44:57;32.60;77.10
15426;DHT22;7812;50.072;7.036;2023-06-10T12:47:36;32.20;77.40
15426;DHT22;7812;50.072;7.036;2023-06-10T12:50:05;30.90;78.50
15426;DHT22;7812;50.072;7.036;2023-06-10T12:52:32;30.30;80.00
15426;DHT22;7812;50.072;7.036;2023-06-10T12:55:00;30.00;80.90
15426;DHT22;7812;50.072;7.036;2023-06-10T12:57:26;30.00;81.10
15426;DHT22;7812;50.072;7.036;2023-06-10T12:59:52;30.70;80.80
15426;DHT22;7812;50.072;7.036;2023-06-10T13:02:21;30.80;80.70
15426;DHT22;7812;50.072;7.036;2023-06-10T13:04:49;30.40;80.10
15426;DHT22;7812;50.072;7.036;2023-06-10T13:07:15;29.60;83.20
15426;DHT22;7812;50.072;7.036;2023-06-10T13:09:42;29.50;81.50
15426;DHT22;7812;50.072;7.036;2023-06-10T13:12:08;29.50;81.70
15426;DHT22;7812;50.072;7.036;2023-06-10T13:14:36;29.30;82.30
15426;DHT22;7812;50.072;7.036;2023-06-10T13:17:03;29.30;83.10
15426;DHT22;7812;50.072;7.036;2023-06-10T13:19:31;29.40;82.90
15426;DHT22;7812;50.072;7.036;2023-06-10T13:21:57;30.00;82.60
15426;DHT22;7812;50.072;7.036;2023-06-10T13:24:23;30.50;81.20
15426;DHT22;7812;50.072;7.036;2023-06-10T13:26:49;29.90;81.80
15426;DHT22;7812;50.072;7.036;2023-06-10T13:29:14;29.70;81.40
15426;DHT22;7812;50.072;7.036;2023-06-10T13:31:41;29.50;81.50
15426;DHT22;7812;50.072;7.036;2023-06-10T13:34:07;29.20;82.30
15426;DHT22;7812;50.072;7.036;2023-06-10T13:36:33;29.10;84.70
15426;DHT22;7812;50.072;7.036;2023-06-10T13:38:59;28.90;82.40
15426;DHT22;7812;50.072;7.036;2023-06-10T13:41:24;29.20;82.00
15426;DHT22;7812;50.072;7.036;2023-06-10T13:43:50;28.90;82.10
15426;DHT22;7812;50.072;7.036;2023-06-10T13:46:16;29.00;82.60
15426;DHT22;7812;50.072;7.036;2023-06-10T13:48:41;29.20;84.20
15426;DHT22;7812;50.072;7.036;2023-06-10T13:51:07;29.30;83.00
15426;DHT22;7812;50.072;7.036;2023-06-10T13:53:34;29.60;86.30
15426;DHT22;7812;50.072;7.036;2023-06-10T13:56:00;29.70;83.70
15426;DHT22;7812;50.072;7.036;2023-06-10T13:58:26;29.60;84.50
15426;DHT22;7812;50.072;7.036;2023-06-10T14:00:52;29.80;83.90
15426;DHT22;7812;50.072;7.036;2023-06-10T14:03:18;30.00;83.60
15426;DHT22;7812;50.072;7.036;2023-06-10T14:05:44;30.20;83.30
15426;DHT22;7812;50.072;7.036;2023-06-10T14:08:09;30.50;82.30
15426;DHT22;7812;50.072;7.036;2023-06-10T14:10:35;30.90;82.30
15426;DHT22;7812;50.072;7.036;2023-06-10T14:13:01;30.90;82.10
15426;DHT22;7812;50.072;7.036;2023-06-10T14:15:26;30.90;80.60
15426;DHT22;7812;50.072;7.036;2023-06-10T14:17:52;30.90;79.90
15426;DHT22;7812;50.072;7.036;2023-06-10T14:20:18;30.30;79.60
15426;DHT22;7812;50.072;7.036;2023-06-10T14:22:43;30.40;79.70
15426;DHT22;7812;50.072;7.036;2023-06-10T14:25:09;30.40;79.50
15426;DHT22;7812;50.072;7.036;2023-06-10T14:27:36;30.10;80.30
15426;DHT22;7812;50.072;7.036;2023-06-10T14:30:02;29.40;79.50
15426;DHT22;7812;50.072;7.036;2023-06-10T14:32:28;29.50;79.60
15426;DHT22;7812;50.072;7.036;2023-06-10T14:34:54;29.60;78.40
15426;DHT22;7812;50.072;7.036;2023-06-10T14:37:19;29.70;80.30
15426;DHT22;7812;50.072;7.036;2023-06-10T14:39:45;29.60;78.70
15426;DHT22;7812;50.072;7.036;2023-06-10T14:42:10;29.30;79.90
15426;DHT22;7812;50.072;7.036;2023-06-10T14:44:36;29.60;80.60
15426;DHT22;7812;50.072;7.036;2023-06-10T14:47:02;29.80;78.80
15426;DHT22;7812;50.072;7.036;2023-06-10T14:49:28;29.70;79.80
15426;DHT22;7812;50.072;7.036;2023-06-10T14:51:53;29.50;79.30
15426;DHT22;7812;50.072;7.036;2023-06-10T14:54:19;29.60;78.20
15426;DHT22;7812;50.072;7.036;2023-06-10T14:56:45;30.00;78.30
15426;DHT22;7812;50.072;7.036;2023-06-10T14:59:10;30.30;79.50
15426;DHT22;7812;50.072;7.036;2023-06-10T15:01:36;30.70;78.60
15426;DHT22;7812;50.072;7.036;2023-06-10T15:04:01;30.80;77.90
15426;DHT22;7812;50.072;7.036;2023-06-10T15:06:27;30.90;78.80
15426;DHT22;7812;50.072;7.036;2023-06-10T15:08:53;30.60;79.20
15426;DHT22;7812;50.072;7.036;2023-06-10T15:11:20;29.30;79.80
15426;DHT22;7812;50.072;7.036;2023-06-10T15:13:46;29.20;82.00
15426;DHT22;7812;50.072;7.036;2023-06-10T15:16:12;29.10;82.90
15426;DHT22;7812;50.072;7.036;2023-06-10T15:18:42;28.90;82.80
15426;DHT22;7812;50.072;7.036;2023-06-10T15:21:07;28.60;83.40
15426;DHT22;7812;50.072;7.036;2023-06-10T15:23:33;28.40;83.80
15426;DHT22;7812;50.072;7.036;2023-06-10T15:25:58;28.30;83.80
15426;DHT22;7812;50.072;7.036;2023-06-10T15:28:24;28.40;84.70
15426;DHT22;7812;50.072;7.036;2023-06-10T15:30:50;28.60;85.30
15426;DHT22;7812;50.072;7.036;2023-06-10T15:33:16;28.40;84.70
15426;DHT22;7812;50.072;7.036;2023-06-10T15:35:41;28.70;85.20
15426;DHT22;7812;50.072;7.036;2023-06-10T15:38:07;29.00;85.50
15426;DHT22;7812;50.072;7.036;2023-06-10T15:40:32;28.90;85.40
15426;DHT22;7812;50.072;7.036;2023-06-10T15:42:58;29.00;85.20
15426;DHT22;7812;50.072;7.036;2023-06-10T15:45:24;29.00;85.80
15426;DHT22;7812;50.072;7.036;2023-06-10T15:47:49;29.00;85.90
15426;DHT22;7812;50.072;7.036;2023-06-10T15:50:15;29.00;86.10
15426;DHT22;7812;50.072;7.036;2023-06-10T15:52:41;29.00;85.40
15426;DHT22;7812;50.072;7.036;2023-06-10T15:55:06;29.30;85.80
15426;DHT22;7812;50.072;7.036;2023-06-10T15:57:32;29.20;85.20
15426;DHT22;7812;50.072;7.036;2023-06-10T15:59:58;29.20;83.60
15426;DHT22;7812;50.072;7.036;2023-06-10T16:02:23;28.80;81.40
15426;DHT22;7812;50.072;7.036;2023-06-10T16:04:49;28.80;80.80
15426;DHT22;7812;50.072;7.036;2023-06-10T16:07:15;28.70;81.40
15426;DHT22;7812;50.072;7.036;2023-06-10T16:09:40;28.60;81.30
15426;DHT22;7812;50.072;7.036;2023-06-10T16:12:06;28.70;81.40